Time;durP1;ratioP1;P1;durP2;ratioP2;P2;SDS_P1;SDS_P2;PMS_P1;PMS_P2;Temp;Humidity;BMP_temperature;BMP_pressure;BME280_temperature;BME280_humidity;BME280_pressure;Samples;Min_cycle;Max_cycle;Signal;HPM_P1;HPM_P2
2022/03/04 00:02:08;;;;;;;26.27;16.73;;;2.50;99.90;;;;;;5133210;28;20053;-69
2022/03/04 00:04:37;;;;;;;25.20;16.00;;;2.50;99.90;;;;;;5098654;28;20053;-69
2022/03/04 00:07:04;;;;;;;25.98;15.52;;;2.50;99.90;;;;;;5133538;28;20134;-68
2022/03/04 00:09:30;;;;;;;27.70;15.48;;;2.40;99.90;;;;;;5115111;28;20047;-69
2022/03/04 00:11:56;;;;;;;25.98;15.90;;;2.40;99.90;;;;;;5133601;28;20051;-69
2022/03/04 00:14:24;;;;;;;26.13;15.02;;;2.40;99.90;;;;;;5132807;28;20082;-69
2022/03/04 00:16:50;;;;;;;22.00;14.35;;;2.40;99.90;;;;;;5115094;28;20055;-69
2022/03/04 00:19:16;;;;;;;25.63;15.45;;;2.30;99.90;;;;;;5133172;28;20053;-69
2022/03/04 00:21:47;;;;;;;21.67;14.55;;;2.30;99.90;;;;;;5135358;27;20082;-69
2022/03/04 00:24:13;;;;;;;25.13;13.93;;;2.30;99.90;;;;;;5136781;27;20523;-69
2022/03/04 00:26:40;;;;;;;23.45;13.90;;;2.30;99.90;;;;;;5137250;27;20126;-69
2022/03/04 00:29:06;;;;;;;20.48;13.55;;;2.30;99.90;;;;;;5118795;27;20055;-76
2022/03/04 00:31:33;;;;;;;23.13;14.20;;;2.30;99.90;;;;;;5137026;27;20119;-69
2022/03/04 00:34:00;;;;;;;21.95;12.70;;;2.20;99.90;;;;;;5136780;27;20039;-69
2022/03/04 00:36:27;;;;;;;19.80;13.43;;;2.20;99.90;;;;;;5136550;27;20047;-69
2022/03/04 00:38:55;;;;;;;19.92;13.27;;;2.20;99.90;;;;;;5136790;27;20474;-69
2022/03/04 00:41:23;;;;;;;21.48;12.90;;;2.20;99.90;;;;;;5136491;27;20090;-69
2022/03/04 00:43:49;;;;;;;20.23;12.95;;;2.20;99.90;;;;;;5136662;27;20043;-69
2022/03/04 00:46:16;;;;;;;21.40;13.07;;;2.10;99.90;;;;;;5136415;27;20099;-69
2022/03/04 00:48:43;;;;;;;20.20;13.05;;;2.20;99.90;;;;;;5136923;27;20043;-69
2022/03/04 00:51:09;;;;;;;23.13;13.27;;;2.10;99.90;;;;;;5136317;27;20039;-77
2022/03/04 00:53:35;;;;;;;19.17;12.18;;;2.10;99.90;;;;;;5136467;27;20038;-69
2022/03/04 00:56:01;;;;;;;18.63;12.07;;;2.10;99.90;;;;;;5136460;27;20047;-69
2022/03/04 00:58:27;;;;;;;20.05;12.75;;;2.10;99.90;;;;;;5117883;27;20050;-69
2022/03/04 01:00:53;;;;;;;18.53;12.30;;;2.10;99.90;;;;;;5118090;27;20051;-69
2022/03/04 01:03:18;;;;;;;20.73;12.63;;;2.10;99.90;;;;;;5117872;27;20479;-69
2022/03/04 01:05:44;;;;;;;21.13;12.13;;;2.00;99.90;;;;;;5136335;27;20574;-69
2022/03/04 01:08:10;;;;;;;20.30;12.10;;;2.00;99.90;;;;;;5100887;27;20055;-76
2022/03/04 01:10:37;;;;;;;19.07;12.47;;;2.00;99.90;;;;;;5118002;27;20467;-69
2022/03/04 01:13:04;;;;;;;20.02;12.80;;;1.90;99.90;;;;;;5136033;27;20055;-69
2022/03/04 01:15:30;;;;;;;19.65;12.10;;;1.90;99.90;;;;;;5114029;28;20895;-69
2022/03/04 01:17:56;;;;;;;18.98;11.70;;;1.90;99.90;;;;;;5114583;28;20047;-69
2022/03/04 01:20:22;;;;;;;20.17;12.27;;;2.00;99.90;;;;;;5114202;28;20039;-69
2022/03/04 01:22:48;;;;;;;20.95;11.77;;;1.90;99.90;;;;;;5115667;28;20055;-69
2022/03/04 01:25:14;;;;;;;20.17;11.17;;;1.90;99.90;;;;;;5115090;28;20486;-69
2022/03/04 01:27:40;;;;;;;18.45;12.00;;;1.90;99.90;;;;;;5115332;28;20087;-69
2022/03/04 01:30:09;;;;;;;20.33;11.80;;;1.80;99.90;;;;;;5097452;28;20086;-69
2022/03/04 01:32:36;;;;;;;20.52;12.32;;;1.80;99.90;;;;;;5114933;28;20040;-69
2022/03/04 01:35:03;;;;;;;16.35;11.15;;;1.80;99.90;;;;;;5115133;28;20082;-69
2022/03/04 01:37:29;;;;;;;21.52;12.02;;;1.80;99.90;;;;;;5114792;28;20046;-69
2022/03/04 01:39:55;;;;;;;20.20;11.97;;;1.70;99.90;;;;;;5115096;28;20047;-69
2022/03/04 01:42:21;;;;;;;19.58;11.85;;;1.70;99.90;;;;;;5113896;28;20086;-69
2022/03/04 01:44:47;;;;;;;18.20;11.63;;;1.70;99.90;;;;;;5115117;28;20488;-69
2022/03/04 01:47:12;;;;;;;19.10;11.50;;;1.70;99.90;;;;;;5113990;28;20046;-69
2022/03/04 01:49:40;;;;;;;20.00;11.50;;;1.60;99.90;;;;;;5114796;28;20145;-69
2022/03/04 01:52:06;;;;;;;20.27;11.75;;;1.70;99.90;;;;;;5113880;28;20043;-69
2022/03/04 01:54:33;;;;;;;21.25;12.43;;;1.60;99.90;;;;;;5114383;28;20132;-69
2022/03/04 01:56:58;;;;;;;19.25;11.80;;;1.80;99.90;;;;;;5113516;28;20543;-69
2022/03/04 01:59:24;;;;;;;19.97;11.67;;;1.70;99.90;;;;;;5114389;28;20079;-69
2022/03/04 02:01:52;;;;;;;19.33;11.17;;;1.90;99.90;;;;;;5114938;28;20086;-68
2022/03/04 02:04:22;;;;;;;18.05;10.98;;;1.70;99.90;;;;;;5114405;28;20032;-69
2022/03/04 02:06:48;;;;;;;16.90;10.23;;;1.70;99.90;;;;;;5114549;28;20442;-69
2022/03/04 02:09:14;;;;;;;20.55;11.65;;;1.60;99.90;;;;;;5113264;28;20044;-69
2022/03/04 02:11:43;;;;;;;18.58;11.55;;;1.40;99.90;;;;;;5112877;28;20491;-69
2022/03/04 02:14:09;;;;;;;21.67;11.30;;;1.40;99.90;;;;;;5114315;28;20031;-69
2022/03/04 02:16:43;;;;;;;18.17;11.60;;;1.40;99.90;;;;;;5133516;27;20395;-69
2022/03/04 02:19:09;;;;;;;19.50;11.55;;;1.30;99.90;;;;;;5116871;27;20548;-69
2022/03/04 02:21:35;;;;;;;20.35;11.88;;;1.30;99.90;;;;;;5134564;27;20126;-69
2022/03/04 02:24:02;;;;;;;20.60;12.82;;;1.40;99.90;;;;;;5116627;27;20100;-68
2022/03/04 02:26:28;;;;;;;21.10;12.02;;;1.30;99.90;;;;;;5134475;27;20103;-69
2022/03/04 02:28:54;;;;;;;18.60;11.90;;;1.10;99.90;;;;;;5134676;27;20424;-69
2022/03/04 02:31:20;;;;;;;23.98;12.88;;;1.50;99.90;;;;;;5116278;27;20053;-69
2022/03/04 02:33:47;;;;;;;25.27;13.38;;;1.20;99.90;;;;;;5116097;27;20047;-69
2022/03/04 02:36:14;;;;;;;21.10;12.07;;;1.20;99.90;;;;;;5134591;27;20095;-68
2022/03/04 02:38:39;;;;;;;22.73;13.32;;;1.70;99.90;;;;;;5134254;27;20047;-69
2022/03/04 02:41:05;;;;;;;19.83;11.80;;;1.30;99.90;;;;;;5134586;27;20471;-69
2022/03/04 02:43:31;;;;;;;21.30;12.23;;;1.10;99.90;;;;;;5115596;28;20047;-69
2022/03/04 02:45:57;;;;;;;22.42;13.98;;;1.20;99.90;;;;;;5134694;27;20065;-68
2022/03/04 02:48:23;;;;;;;22.53;13.53;;;1.20;99.90;;;;;;5134200;27;20471;-69
2022/03/04 02:50:49;;;;;;;22.47;13.27;;;1.10;99.90;;;;;;5116227;27;20051;-68
2022/03/04 02:53:14;;;;;;;20.63;11.93;;;1.10;99.90;;;;;;5115915;27;20039;-69
2022/03/04 02:55:40;;;;;;;20.50;12.33;;;1.20;99.90;;;;;;5133977;27;20055;-69
2022/03/04 02:58:06;;;;;;;22.73;13.30;;;1.40;99.90;;;;;;5134243;27;20131;-68
2022/03/04 03:00:32;;;;;;;23.30;13.43;;;;;;;;;;5133849;27;20055;-69
2022/03/04 03:02:58;;;;;;;21.83;13.73;;;1.10;99.90;;;;;;5134212;27;20047;-69
2022/03/04 03:05:24;;;;;;;18.93;12.43;;;1.10;99.90;;;;;;5115572;27;20436;-69
2022/03/04 03:07:50;;;;;;;22.25;13.85;;;1.10;99.90;;;;;;5134291;27;20090;-69
2022/03/04 03:10:16;;;;;;;23.33;14.67;;;1.10;99.90;;;;;;5134173;27;20086;-69
2022/03/04 03:12:42;;;;;;;23.57;12.97;;;1.10;99.90;;;;;;5115850;28;20932;-69
2022/03/04 03:15:09;;;;;;;21.80;13.30;;;1.00;99.90;;;;;;5115505;28;20047;-69
2022/03/04 03:17:35;;;;;;;24.65;13.55;;;1.00;99.90;;;;;;5133698;28;20059;-68
2022/03/04 03:20:03;;;;;;;20.70;13.10;;;1.00;99.90;;;;;;5133925;28;20502;-69
2022/03/04 03:22:29;;;;;;;22.75;13.68;;;1.00;99.90;;;;;;5133581;28;20043;-68
2022/03/04 03:24:55;;;;;;;22.77;13.93;;;0.90;99.90;;;;;;5133930;28;20167;-68
2022/03/04 03:27:21;;;;;;;25.07;13.97;;;0.90;99.90;;;;;;5133953;28;20043;-69
2022/03/04 03:29:46;;;;;;;23.30;14.60;;;0.90;99.90;;;;;;5133622;28;20372;-69
2022/03/04 03:32:13;;;;;;;23.83;14.27;;;0.90;99.90;;;;;;5133846;28;20054;-68
2022/03/04 03:34:39;;;;;;;24.02;14.88;;;0.90;99.90;;;;;;5115318;28;20043;-69
2022/03/04 03:37:06;;;;;;;22.45;13.80;;;0.80;99.90;;;;;;5133772;28;20043;-68
2022/03/04 03:39:32;;;;;;;26.83;14.82;;;0.80;99.90;;;;;;5115407;28;20364;-69
2022/03/04 03:41:58;;;;;;;25.10;14.80;;;0.80;99.90;;;;;;5115948;28;20042;-69
2022/03/04 03:44:23;;;;;;;23.20;14.20;;;0.80;99.90;;;;;;5115602;28;20051;-69
2022/03/04 03:46:49;;;;;;;22.83;13.93;;;0.80;99.90;;;;;;5133446;28;20043;-68
2022/03/04 03:49:15;;;;;;;24.80;15.00;;;0.80;99.90;;;;;;5115568;28;20050;-68
2022/03/04 03:51:41;;;;;;;24.37;14.60;;;0.80;99.90;;;;;;5133065;28;20051;-68
2022/03/04 03:54:06;;;;;;;22.87;14.33;;;0.70;99.90;;;;;;5133605;28;20043;-69
2022/03/04 03:56:32;;;;;;;21.43;14.07;;;0.70;99.90;;;;;;5135261;27;20145;-69
2022/03/04 03:58:58;;;;;;;23.77;14.03;;;0.70;99.90;;;;;;5138013;27;20058;-69
2022/03/04 04:01:24;;;;;;;24.93;15.30;;;0.70;99.90;;;;;;5119232;27;20043;-69
2022/03/04 04:03:50;;;;;;;25.53;13.83;;;0.70;99.90;;;;;;5137240;27;20440;-69
2022/03/04 04:06:16;;;;;;;27.05;16.05;;;0.70;99.90;;;;;;5137635;27;20138;-69
2022/03/04 04:08:42;;;;;;;24.73;14.48;;;0.60;99.90;;;;;;5137118;27;20051;-69
2022/03/04 04:11:08;;;;;;;24.33;14.73;;;0.60;99.90;;;;;;5102215;27;20475;-69
2022/03/04 04:13:34;;;;;;;24.35;15.77;;;0.60;99.90;;;;;;5136960;27;20040;-69
2022/03/04 04:15:59;;;;;;;26.60;15.17;;;0.60;99.90;;;;;;5136930;27;20552;-69
2022/03/04 04:18:25;;;;;;;26.03;14.70;;;0.60;99.90;;;;;;5137293;27;20499;-69
2022/03/04 04:20:51;;;;;;;25.23;14.60;;;0.60;99.90;;;;;;5136904;27;20390;-69
2022/03/04 04:23:17;;;;;;;27.90;15.87;;;0.60;99.90;;;;;;5137278;27;20047;-69
2022/03/04 04:25:42;;;;;;;27.00;15.70;;;0.60;99.90;;;;;;5136790;27;20043;-69
2022/03/04 04:28:08;;;;;;;27.87;15.60;;;0.60;99.90;;;;;;5118937;27;20129;-69
2022/03/04 04:30:34;;;;;;;26.20;15.67;;;;;;;;;;5136690;27;20039;-69
2022/03/04 04:33:00;;;;;;;24.17;14.50;;;0.60;99.90;;;;;;5136933;27;20047;-69
2022/03/04 04:35:26;;;;;;;26.50;15.27;;;0.50;99.90;;;;;;5136956;27;20043;-69
2022/03/04 04:37:52;;;;;;;24.97;16.23;;;0.50;99.90;;;;;;5118241;27;20051;-69
2022/03/04 04:40:18;;;;;;;27.60;16.13;;;0.40;99.90;;;;;;5136804;27;20127;-69
2022/03/04 04:42:44;;;;;;;26.08;15.18;;;0.50;99.90;;;;;;5118346;27;20051;-69
2022/03/04 04:45:10;;;;;;;23.45;15.25;;;0.50;99.90;;;;;;5118619;27;20474;-69
2022/03/04 04:47:36;;;;;;;22.93;14.93;;;0.50;99.90;;;;;;5117848;27;20111;-69
2022/03/04 04:50:02;;;;;;;26.23;15.17;;;0.40;99.90;;;;;;5101421;27;20043;-68
2022/03/04 04:52:28;;;;;;;28.05;16.38;;;0.50;99.90;;;;;;5136624;27;20054;-68
2022/03/04 04:54:54;;;;;;;28.45;16.90;;;0.30;99.90;;;;;;5136137;27;20036;-68
2022/03/04 04:57:20;;;;;;;26.30;15.60;;;0.40;99.90;;;;;;5136537;27;20043;-68
2022/03/04 04:59:45;;;;;;;25.70;15.03;;;0.40;99.90;;;;;;5136139;27;20059;-69
2022/03/04 05:02:11;;;;;;;26.77;15.53;;;0.30;99.90;;;;;;5136352;27;20062;-68
2022/03/04 05:04:37;;;;;;;30.47;16.73;;;0.30;99.90;;;;;;5135999;27;20040;-69
2022/03/04 05:07:03;;;;;;;29.53;17.53;;;0.40;99.90;;;;;;5136252;27;20112;-69
2022/03/04 05:09:29;;;;;;;27.63;16.73;;;;;;;;;;5117883;27;20039;-69
2022/03/04 05:11:55;;;;;;;27.70;16.70;;;;;;;;;;5100826;27;20082;-69
2022/03/04 05:14:21;;;;;;;31.50;17.20;;;;;;;;;;5136161;27;20043;-68
2022/03/04 05:16:47;;;;;;;28.17;16.23;;;;;;;;;;5135955;27;20047;-68
2022/03/04 05:19:13;;;;;;;34.03;17.48;;;;;;;;;;5136390;27;20051;-68
2022/03/04 05:21:40;;;;;;;26.13;15.93;;;;;;;;;;5100692;27;20485;-69
2022/03/04 05:24:07;;;;;;;29.63;17.90;;;;;;;;;;5118128;27;20399;-68
2022/03/04 05:26:35;;;;;;;26.95;16.70;;;;;;;;;;5135947;27;20055;-68
2022/03/04 05:29:02;;;;;;;27.25;17.25;;;;;;;;;;5135763;27;20129;-68
2022/03/04 05:31:28;;;;;;;25.80;16.67;;;;;;;;;;5135951;27;20130;-68
2022/03/04 05:33:55;;;;;;;26.92;16.33;;;;;;;;;;5117261;27;20095;-68
2022/03/04 05:36:21;;;;;;;30.08;16.55;;;;;;;;;;5135758;27;20101;-68
2022/03/04 05:38:48;;;;;;;27.83;16.52;;;;;;;;;;5117100;27;20127;-68
2022/03/04 05:41:15;;;;;;;28.52;17.25;;;;;;;;;;5135289;27;20491;-68
2022/03/04 05:43:41;;;;;;;29.08;17.75;;;;;;;;;;5135193;27;20046;-68
2022/03/04 05:46:07;;;;;;;27.75;16.80;;;-0.10;99.90;;;;;;5135643;27;20048;-68
2022/03/04 05:48:33;;;;;;;28.48;18.05;;;0.00;99.90;;;;;;5135141;27;20043;-68
2022/03/04 05:50:59;;;;;;;29.10;16.35;;;-0.10;99.90;;;;;;5134816;27;20723;-68
2022/03/04 05:53:25;;;;;;;26.13;16.27;;;-0.20;99.90;;;;;;5117147;27;20122;-68
2022/03/04 05:55:51;;;;;;;27.37;16.97;;;-0.20;99.90;;;;;;5135087;27;20071;-68
2022/03/04 05:58:17;;;;;;;33.60;18.63;;;-0.30;99.90;;;;;;5135497;27;20395;-68
2022/03/04 06:00:43;;;;;;;30.73;17.30;;;-0.30;99.90;;;;;;5134875;27;20043;-68
2022/03/04 06:03:09;;;;;;;28.17;17.83;;;-0.30;99.90;;;;;;5135158;27;20054;-68
2022/03/04 06:05:35;;;;;;;28.75;18.23;;;-0.30;99.90;;;;;;5134766;27;20475;-68
2022/03/04 06:08:01;;;;;;;32.28;19.33;;;-0.40;99.90;;;;;;5134736;27;20055;-68
2022/03/04 06:10:28;;;;;;;32.20;18.57;;;-0.40;99.90;;;;;;5135130;27;20047;-68
2022/03/04 06:12:53;;;;;;;39.08;18.90;;;-0.40;99.90;;;;;;5134700;27;20059;-68
2022/03/04 06:15:19;;;;;;;31.43;18.20;;;-0.40;99.90;;;;;;5135004;27;20059;-68
2022/03/04 06:17:49;;;;;;;35.13;19.92;;;-0.40;99.90;;;;;;5134566;27;20051;-68
2022/03/04 06:20:16;;;;;;;33.65;19.77;;;-0.30;99.90;;;;;;5116130;27;20061;-68
2022/03/04 06:22:43;;;;;;;32.17;19.60;;;-0.30;99.90;;;;;;5134616;27;20095;-68
2022/03/04 06:25:10;;;;;;;37.38;21.20;;;-0.40;99.90;;;;;;5134757;27;20046;-68
2022/03/04 06:27:36;;;;;;;39.47;21.40;;;-0.30;99.90;;;;;;5116657;27;20055;-68
2022/03/04 06:30:04;;;;;;;34.78;20.45;;;-0.20;99.90;;;;;;5115918;27;20510;-68
2022/03/04 06:32:29;;;;;;;38.80;24.95;;;-0.30;99.90;;;;;;5134696;27;20055;-68
2022/03/04 06:34:55;;;;;;;36.27;22.60;;;-0.30;99.90;;;;;;5134181;27;20051;-68
2022/03/04 06:37:21;;;;;;;39.17;24.27;;;-0.20;99.90;;;;;;5134600;27;20070;-68
2022/03/04 06:39:46;;;;;;;36.33;22.10;;;-0.30;99.90;;;;;;5116202;27;20054;-69
2022/03/04 06:42:12;;;;;;;63.87;28.63;;;-0.10;99.90;;;;;;5134753;27;20046;-68
2022/03/04 06:44:38;;;;;;;45.27;30.47;;;-0.20;99.90;;;;;;5116314;27;20035;-68
2022/03/04 06:47:04;;;;;;;34.13;20.83;;;-0.20;99.90;;;;;;5134104;27;20505;-68
2022/03/04 06:49:29;;;;;;;34.97;22.33;;;-0.10;99.90;;;;;;5134295;27;20175;-68
2022/03/04 06:51:55;;;;;;;33.30;21.37;;;-0.10;99.90;;;;;;5115941;27;20096;-68
2022/03/04 06:54:21;;;;;;;36.80;21.67;;;-0.10;99.90;;;;;;5115927;27;20050;-68
2022/03/04 06:56:46;;;;;;;36.80;21.67;;;-0.10;99.90;;;;;;5133973;27;20047;-69
2022/03/04 06:59:12;;;;;;;36.00;21.10;;;-0.20;99.90;;;;;;5134193;27;20475;-69
2022/03/04 07:01:38;;;;;;;42.13;22.37;;;-0.20;99.90;;;;;;5134216;27;20051;-69
2022/03/04 07:04:04;;;;;;;35.00;22.20;;;-0.20;99.90;;;;;;5134093;27;20090;-69
2022/03/04 07:06:29;;;;;;;40.93;22.00;;;-0.10;99.90;;;;;;5116046;27;20058;-69
2022/03/04 07:08:55;;;;;;;36.93;22.23;;;-0.20;99.90;;;;;;5081971;27;20367;-68
2022/03/04 07:11:21;;;;;;;43.67;26.13;;;-0.10;99.90;;;;;;5115973;28;20055;-69
2022/03/04 07:13:46;;;;;;;41.70;26.53;;;0.00;99.90;;;;;;5134096;27;20117;-69
2022/03/04 07:16:12;;;;;;;38.93;26.87;;;0.00;99.90;;;;;;5112121;28;20488;-69
2022/03/04 07:18:38;;;;;;;38.83;23.57;;;0.00;99.90;;;;;;5113545;28;20154;-68
2022/03/04 07:21:03;;;;;;;41.10;24.33;;;0.00;99.90;;;;;;5113143;28;20535;-68
2022/03/04 07:23:29;;;;;;;37.53;22.67;;;0.00;99.90;;;;;;5113405;28;20483;-69
2022/03/04 07:25:55;;;;;;;35.30;22.47;;;0.00;99.90;;;;;;5113070;28;20044;-69
2022/03/04 07:28:21;;;;;;;38.50;22.90;;;0.10;99.90;;;;;;5113661;28;20141;-68
2022/03/04 07:30:47;;;;;;;37.93;22.80;;;0.00;99.90;;;;;;5097727;28;20551;-76
2022/03/04 07:33:12;;;;;;;37.03;22.47;;;0.10;99.90;;;;;;5116341;28;20070;-68
2022/03/04 07:35:42;;;;;;;36.20;22.83;;;0.10;99.90;;;;;;5117523;28;20054;-68
2022/03/04 07:38:08;;;;;;;40.70;23.08;;;0.10;99.90;;;;;;5116230;28;20480;-68
2022/03/04 07:40:33;;;;;;;39.23;21.83;;;0.20;99.90;;;;;;5117490;28;20055;-68
2022/03/04 07:43:01;;;;;;;38.17;22.67;;;0.20;99.90;;;;;;5117067;28;20085;-68
2022/03/04 07:45:27;;;;;;;37.65;23.00;;;0.20;99.90;;;;;;5117289;28;20047;-68
2022/03/04 07:47:52;;;;;;;47.73;24.10;;;0.20;99.90;;;;;;5116985;28;20043;-68
2022/03/04 07:50:18;;;;;;;39.07;23.77;;;0.30;99.90;;;;;;5115973;28;20054;-68
2022/03/04 07:52:44;;;;;;;38.40;23.67;;;0.40;99.90;;;;;;5117189;28;20043;-68
2022/03/04 07:55:15;;;;;;;35.03;22.85;;;0.40;99.90;;;;;;5115625;28;20054;-68
2022/03/04 07:57:42;;;;;;;37.25;22.88;;;0.40;99.90;;;;;;5117069;28;20086;-68
2022/03/04 08:00:12;;;;;;;43.55;23.95;;;0.40;99.90;;;;;;5115588;28;20096;-68
2022/03/04 08:02:41;;;;;;;39.95;22.98;;;0.40;99.90;;;;;;5117127;28;20143;-68
2022/03/04 08:05:08;;;;;;;41.05;23.30;;;0.50;99.90;;;;;;5116344;28;20446;-68
2022/03/04 08:07:36;;;;;;;41.95;24.35;;;0.40;99.90;;;;;;5116986;28;20057;-68
2022/03/04 08:10:04;;;;;;;49.28;23.60;;;0.40;99.90;;;;;;5116366;28;20402;-68
2022/03/04 08:12:30;;;;;;;39.60;24.05;;;0.40;99.90;;;;;;5117083;28;20465;-68
2022/03/04 08:14:56;;;;;;;40.37;24.90;;;0.40;99.90;;;;;;5119675;27;20090;-68
2022/03/04 08:17:21;;;;;;;38.03;24.10;;;0.50;99.90;;;;;;5119075;27;20059;-68
2022/03/04 08:19:47;;;;;;;37.57;23.80;;;0.50;99.90;;;;;;5119371;27;20055;-68
2022/03/04 08:22:13;;;;;;;36.53;21.87;;;0.50;99.90;;;;;;5136598;27;20046;-68
2022/03/04 08:24:38;;;;;;;50.30;24.93;;;0.50;99.90;;;;;;5136830;27;20099;-68
2022/03/04 08:27:04;;;;;;;37.53;22.63;;;0.50;99.90;;;;;;5137049;27;20078;-68
2022/03/04 08:29:30;;;;;;;36.23;22.87;;;0.50;99.90;;;;;;5136716;27;20487;-68
2022/03/04 08:31:55;;;;;;;39.70;22.40;;;0.60;99.90;;;;;;5136724;27;20051;-68
2022/03/04 08:34:21;;;;;;;37.57;23.10;;;0.60;99.90;;;;;;5118936;27;20423;-68
2022/03/04 08:36:49;;;;;;;35.53;23.40;;;0.50;99.90;;;;;;5136938;27;20520;-68
2022/03/04 08:39:16;;;;;;;36.53;24.08;;;0.50;99.90;;;;;;5118233;27;20043;-68
2022/03/04 08:41:42;;;;;;;38.35;23.83;;;0.60;99.90;;;;;;5136227;27;20051;-68
2022/03/04 08:44:08;;;;;;;37.15;24.02;;;0.60;99.90;;;;;;5136457;27;20047;-68
2022/03/04 08:46:35;;;;;;;34.00;23.10;;;;;;;;;;5118506;27;20046;-68
2022/03/04 08:49:02;;;;;;;34.35;22.83;;;;;;;;;;5136376;27;20047;-68
2022/03/04 08:51:28;;;;;;;35.85;22.30;;;1.00;99.90;;;;;;5136351;27;20465;-68
2022/03/04 08:53:54;;;;;;;34.92;22.75;;;1.00;99.90;;;;;;5136290;27;20122;-73
2022/03/04 08:56:21;;;;;;;32.22;22.63;;;1.10;99.90;;;;;;5136504;27;20063;-68
2022/03/04 08:58:47;;;;;;;37.72;23.27;;;1.00;99.90;;;;;;5118451;27;20103;-68
2022/03/04 09:01:13;;;;;;;35.65;22.50;;;1.10;99.90;;;;;;5136219;27;20096;-68
2022/03/04 09:03:39;;;;;;;35.53;22.40;;;1.00;99.90;;;;;;5118235;27;20039;-70
2022/03/04 09:06:05;;;;;;;31.57;21.43;;;1.20;99.90;;;;;;5136071;27;20577;-68
2022/03/04 09:08:31;;;;;;;31.43;21.67;;;1.20;99.90;;;;;;5136449;27;20121;-68
2022/03/04 09:10:57;;;;;;;31.37;21.57;;;1.20;99.90;;;;;;5135708;27;20152;-72
2022/03/04 09:13:23;;;;;;;33.37;21.70;;;1.20;99.90;;;;;;5136084;27;20118;-68
2022/03/04 09:15:50;;;;;;;32.88;22.67;;;1.20;99.90;;;;;;5136140;27;20059;-68
2022/03/04 09:18:16;;;;;;;33.83;22.33;;;1.20;99.90;;;;;;5117692;27;20058;-68
2022/03/04 09:20:42;;;;;;;33.40;22.95;;;1.20;99.90;;;;;;5117702;27;20050;-68
2022/03/04 09:23:08;;;;;;;34.33;22.73;;;1.20;99.90;;;;;;5135776;27;20414;-68
2022/03/04 09:25:34;;;;;;;34.03;23.43;;;1.30;99.90;;;;;;5135657;27;20039;-67
2022/03/04 09:28:02;;;;;;;34.67;22.07;;;1.40;99.90;;;;;;5135528;27;20132;-68
2022/03/04 09:30:31;;;;;;;32.92;23.27;;;1.40;99.90;;;;;;5117667;27;20490;-68
2022/03/04 09:32:57;;;;;;;32.15;22.55;;;1.50;99.90;;;;;;5117870;27;20509;-68
2022/03/04 09:35:23;;;;;;;30.93;22.67;;;1.60;99.90;;;;;;5135724;27;20043;-68
2022/03/04 09:37:49;;;;;;;33.35;23.77;;;1.70;99.90;;;;;;5135428;27;20284;-68
2022/03/04 09:40:15;;;;;;;29.50;21.20;;;1.70;99.90;;;;;;5135427;27;20471;-68
2022/03/04 09:42:41;;;;;;;37.03;24.37;;;1.70;99.90;;;;;;5135643;27;20070;-68
2022/03/04 09:45:07;;;;;;;28.30;21.15;;;1.80;99.90;;;;;;5135635;27;20273;-68
2022/03/04 09:47:34;;;;;;;29.58;21.15;;;;;;;;;;5135630;27;20047;-68
2022/03/04 09:49:59;;;;;;;31.95;21.90;;;2.00;99.90;;;;;;5135560;27;20082;-76
2022/03/04 09:52:25;;;;;;;31.83;22.10;;;2.00;99.90;;;;;;5083887;27;20135;-67
2022/03/04 09:54:52;;;;;;;30.83;22.07;;;2.10;99.90;;;;;;5116075;27;20042;-67
2022/03/04 09:57:19;;;;;;;34.13;22.27;;;;;;;;;;5135586;27;20399;-73
2022/03/04 09:59:45;;;;;;;31.13;22.08;;;2.20;99.90;;;;;;5125440;27;20046;-71
2022/03/04 10:02:12;;;;;;;32.10;22.13;;;2.20;99.90;;;;;;5143358;27;20070;-73
2022/03/04 10:04:38;;;;;;;32.05;20.58;;;2.20;99.90;;;;;;5143415;27;20038;-72
2022/03/04 10:07:17;;;;;;;28.08;20.13;;;2.20;99.90;;;;;;5134903;27;20047;-73
2022/03/04 10:09:45;;;;;;;30.95;20.95;;;2.20;99.90;;;;;;5135058;27;20051;-72
2022/03/04 10:12:13;;;;;;;28.30;19.48;;;2.10;99.90;;;;;;5134843;27;20121;-71
2022/03/04 10:15:05;;;;;;;29.60;20.48;;;2.10;99.90;;;;;;5116723;27;20039;-72
2022/03/04 10:17:32;;;;;;;26.02;19.23;;;2.20;99.90;;;;;;5134963;27;20058;-71
2022/03/04 10:20:04;;;;;;;27.02;19.15;;;2.30;99.90;;;;;;5134618;27;20467;-71
2022/03/04 10:22:42;;;;;;;27.58;19.17;;;2.30;99.90;;;;;;5135177;27;20121;-72
2022/03/04 10:25:15;;;;;;;25.95;18.75;;;;;;;;;;5134702;27;20049;-75
2022/03/04 10:27:41;;;;;;;25.42;18.60;;;;;;;;;;5118024;27;20047;-76
2022/03/04 10:30:08;;;;;;;27.67;18.45;;;;;;;;;;5145602;27;20418;-73
2022/03/04 10:32:34;;;;;;;65.07;41.17;;;;;;;;;;5149533;27;20046;-74
2022/03/04 10:35:01;;;;;;;68.57;41.47;;;;;;;;;;5134560;27;20047;-72
2022/03/04 10:37:30;;;;;;;26.10;19.10;;;;;;;;;;5133719;27;20043;-73
2022/03/04 10:40:01;;;;;;;24.80;19.02;;;;;;;;;;5115846;27;20134;-68
2022/03/04 10:42:53;;;;;;;30.30;20.88;;;;;;;;;;5134191;27;20043;-72
2022/03/04 10:45:23;;;;;;;24.88;18.90;;;;;;;;;;5129126;27;20058;-74
2022/03/04 10:47:54;;;;;;;28.67;20.42;;;;;;;;;;5134193;27;20414;-73
2022/03/04 10:50:32;;;;;;;32.22;24.13;;;;;;;;;;5133763;27;20051;-77
2022/03/04 10:52:58;;;;;;;26.58;19.88;;;;;;;;;;5134510;27;20058;-74
2022/03/04 10:55:42;;;;;;;25.17;18.58;;;;;;;;;;5133429;27;20432;-74
2022/03/04 10:58:22;;;;;;;29.60;20.52;;;;;;;;;;5122355;27;20042;-70
2022/03/04 11:00:49;;;;;;;24.38;18.13;;;;;;;;;;5154747;27;20058;-69
2022/03/04 11:03:19;;;;;;;24.38;18.17;;;;;;;;;;5154588;27;20047;-69
2022/03/04 11:05:45;;;;;;;25.90;18.05;;;;;;;;;;5154185;27;20039;-69
2022/03/04 11:08:12;;;;;;;26.40;19.55;;;;;;;;;;5153191;27;20053;-69
2022/03/04 11:10:38;;;;;;;28.48;19.10;;;;;;;;;;5135926;27;20042;-68
2022/03/04 11:13:09;;;;;;;26.95;20.63;;;;;;;;;;5119108;27;20179;-74
2022/03/04 11:15:37;;;;;;;25.65;18.17;;;;;;;;;;5153941;27;20050;-76
2022/03/04 11:18:08;;;;;;;25.95;20.08;;;;;;;;;;5154151;27;20057;-73
2022/03/04 11:20:34;;;;;;;26.85;18.48;;;;;;;;;;5154384;27;20046;-72
2022/03/04 11:23:00;;;;;;;24.52;19.73;;;;;;;;;;5136127;27;20114;-73
2022/03/04 11:25:34;;;;;;;26.63;18.30;;;;;;;;;;5153527;27;20524;-75
2022/03/04 11:28:08;;;;;;;21.40;17.52;;;;;;;;;;5130451;28;20135;-73
2022/03/04 11:30:39;;;;;;;23.00;17.17;;;;;;;;;;5115133;28;20087;-69
2022/03/04 11:33:06;;;;;;;23.27;17.27;;;;;;;;;;5134069;28;20135;-68
2022/03/04 11:35:56;;;;;;;20.45;16.55;;;;;;;;;;5133018;27;20096;-69
2022/03/04 11:38:41;;;;;;;24.00;17.67;;;;;;;;;;5119380;27;20126;-68
2022/03/04 11:41:08;;;;;;;24.08;18.25;;;;;;;;;;5133614;28;20078;-68
2022/03/04 11:43:44;;;;;;;23.73;18.02;;;;;;;;;;5114921;28;20054;-71
2022/03/04 11:46:18;;;;;;;24.58;18.08;;;;;;;;;;5133359;27;20050;-67
2022/03/04 11:48:44;;;;;;;20.85;16.42;;;;;;;;;;5114854;28;20051;-67
2022/03/04 11:51:17;;;;;;;23.00;17.50;;;;;;;;;;5133599;28;20057;-68
2022/03/04 11:53:44;;;;;;;24.52;17.85;;;;;;;;;;5133480;27;20055;-69
2022/03/04 11:56:11;;;;;;;21.25;16.90;;;4.70;99.90;;;;;;5133552;28;20051;-68
2022/03/04 11:58:56;;;;;;;21.15;15.50;;;4.70;99.90;;;;;;5115287;28;20047;-68
2022/03/04 12:01:33;;;;;;;22.02;16.90;;;4.80;99.90;;;;;;5114989;28;20104;-68
2022/03/04 12:04:09;;;;;;;20.35;15.57;;;4.80;99.90;;;;;;5133861;28;20364;-68
2022/03/04 12:06:36;;;;;;;19.80;14.50;;;4.90;99.90;;;;;;5114973;28;20047;-67
2022/03/04 12:09:27;;;;;;;21.17;15.95;;;5.00;99.90;;;;;;5131448;27;20053;-79
2022/03/04 12:12:15;;;;;;;19.45;14.40;;;5.10;99.90;;;;;;5133102;28;20513;-71
2022/03/04 12:14:46;;;;;;;20.23;14.70;;;5.10;99.90;;;;;;5132845;28;20137;-71
2022/03/04 12:17:12;;;;;;;20.05;15.30;;;5.10;99.90;;;;;;5115755;27;20122;-72
2022/03/04 12:19:38;;;;;;;23.95;17.80;;;5.10;99.90;;;;;;5136326;27;20126;-73
2022/03/04 12:22:06;;;;;;;21.10;15.02;;;5.20;99.90;;;;;;5136645;27;20058;-74
2022/03/04 12:24:34;;;;;;;26.40;18.17;;;5.20;99.90;;;;;;5136328;27;20066;-73
2022/03/04 12:27:02;;;;;;;21.92;17.83;;;5.20;99.90;;;;;;5118977;27;20134;-72
2022/03/04 12:29:45;;;;;;;19.75;14.52;;;5.30;99.90;;;;;;5136688;27;20104;-73
2022/03/04 12:32:12;;;;;;;21.65;15.38;;;5.40;99.90;;;;;;5118595;27;20051;-75
2022/03/04 12:34:49;;;;;;;19.25;14.75;;;5.50;99.90;;;;;;5136690;27;20043;-75
2022/03/04 12:37:15;;;;;;;20.33;15.32;;;5.50;99.90;;;;;;5118869;27;20382;-73
2022/03/04 12:39:46;;;;;;;21.77;15.30;;;5.60;99.90;;;;;;5118852;27;20115;-71
2022/03/04 12:42:12;;;;;;;18.88;13.93;;;5.60;99.90;;;;;;5137057;27;20058;-70
2022/03/04 12:44:38;;;;;;;18.38;13.52;;;5.70;99.90;;;;;;5101378;27;20051;-70
2022/03/04 12:47:04;;;;;;;19.60;13.63;;;5.70;99.90;;;;;;5136735;27;20039;-70
2022/03/04 12:49:31;;;;;;;18.08;12.68;;;5.70;99.90;;;;;;5101313;27;20047;-74
2022/03/04 12:51:57;;;;;;;16.83;12.07;;;5.80;99.90;;;;;;5118323;27;20440;-74
2022/03/04 12:54:28;;;;;;;20.75;13.05;;;5.90;98.90;;;;;;5136235;27;20046;-75